sensor_id;sensor_type;location;lat;lon;timestamp;P1;P2;P0
43479;PMS5003;29067;35.492;-97.520;2023-05-10T00:01:16;18;17;
43479;PMS5003;29067;35.492;-97.520;2023-05-10T00:03:45;20;19;
43479;PMS5003;29067;35.492;-97.520;2023-05-10T00:06:13;17;16;
43479;PMS5003;29067;35.492;-97.520;2023-05-10T00:08:42;18;17;
43479;PMS5003;29067;35.492;-97.520;2023-05-10T00:11:10;17;16;
43479;PMS5003;29067;35.492;-97.520;2023-05-10T00:13:38;13;12;
43479;PMS5003;29067;35.492;-97.520;2023-05-10T00:16:07;18;18;
43479;PMS5003;29067;35.492;-97.520;2023-05-10T00:18:35;21;21;
43479;PMS5003;29067;35.492;-97.520;2023-05-10T00:21:03;17;16;
43479;PMS5003;29067;35.492;-97.520;2023-05-10T00:23:32;22;19;
43479;PMS5003;29067;35.492;-97.520;2023-05-10T00:25:59;18;17;
43479;PMS5003;29067;35.492;-97.520;2023-05-10T00:28:28;20;19;
43479;PMS5003;29067;35.492;-97.520;2023-05-10T00:30:56;20;19;
43479;PMS5003;29067;35.492;-97.520;2023-05-10T00:33:24;18;17;
43479;PMS5003;29067;35.492;-97.520;2023-05-10T00:35:53;18;18;
43479;PMS5003;29067;35.492;-97.520;2023-05-10T00:38:21;19;19;
43479;PMS5003;29067;35.492;-97.520;2023-05-10T00:40:49;22;19;
43479;PMS5003;29067;35.492;-97.520;2023-05-10T00:43:17;20;20;
43479;PMS5003;29067;35.492;-97.520;2023-05-10T00:45:45;21;20;
43479;PMS5003;29067;35.492;-97.520;2023-05-10T00:48:13;21;20;
43479;PMS5003;29067;35.492;-97.520;2023-05-10T00:50:41;26;21;
43479;PMS5003;29067;35.492;-97.520;2023-05-10T00:53:09;18;18;
43479;PMS5003;29067;35.492;-97.520;2023-05-10T00:55:39;20;20;
43479;PMS5003;29067;35.492;-97.520;2023-05-10T00:58:07;21;19;
43479;PMS5003;29067;35.492;-97.520;2023-05-10T01:00:35;20;20;
43479;PMS5003;29067;35.492;-97.520;2023-05-10T01:03:03;19;19;
43479;PMS5003;29067;35.492;-97.520;2023-05-10T01:05:32;22;20;
43479;PMS5003;29067;35.492;-97.520;2023-05-10T01:08:00;24;19;
43479;PMS5003;29067;35.492;-97.520;2023-05-10T01:10:29;19;18;
43479;PMS5003;29067;35.492;-97.520;2023-05-10T01:12:57;19;18;
43479;PMS5003;29067;35.492;-97.520;2023-05-10T01:15:27;18;18;
43479;PMS5003;29067;35.492;-97.520;2023-05-10T01:17:55;18;18;
43479;PMS5003;29067;35.492;-97.520;2023-05-10T01:20:23;21;20;
43479;PMS5003;29067;35.492;-97.520;2023-05-10T01:23:03;20;19;
43479;PMS5003;29067;35.492;-97.520;2023-05-10T01:27:09;19;19;
43479;PMS5003;29067;35.492;-97.520;2023-05-10T01:30:01;22;21;
43479;PMS5003;29067;35.492;-97.520;2023-05-10T01:33:30;22;21;
43479;PMS5003;29067;35.492;-97.520;2023-05-10T01:36:08;25;25;
43479;PMS5003;29067;35.492;-97.520;2023-05-10T01:38:42;23;23;
43479;PMS5003;29067;35.492;-97.520;2023-05-10T01:41:16;19;19;
43479;PMS5003;29067;35.492;-97.520;2023-05-10T01:43:48;17;17;
43479;PMS5003;29067;35.492;-97.520;2023-05-10T01:46:23;19;19;
43479;PMS5003;29067;35.492;-97.520;2023-05-10T01:48:55;18;17;
43479;PMS5003;29067;35.492;-97.520;2023-05-10T01:51:27;21;20;
43479;PMS5003;29067;35.492;-97.520;2023-05-10T01:54:02;19;19;
43479;PMS5003;29067;35.492;-97.520;2023-05-10T01:56:33;18;17;
43479;PMS5003;29067;35.492;-97.520;2023-05-10T01:59:05;17;17;
43479;PMS5003;29067;35.492;-97.520;2023-05-10T02:01:38;18;17;
43479;PMS5003;29067;35.492;-97.520;2023-05-10T02:04:07;21;21;
43479;PMS5003;29067;35.492;-97.520;2023-05-10T02:06:38;18;17;
43479;PMS5003;29067;35.492;-97.520;2023-05-10T02:09:08;20;20;
43479;PMS5003;29067;35.492;-97.520;2023-05-10T02:11:37;19;19;
43479;PMS5003;29067;35.492;-97.520;2023-05-10T02:14:08;19;19;
43479;PMS5003;29067;35.492;-97.520;2023-05-10T02:16:38;23;19;
43479;PMS5003;29067;35.492;-97.520;2023-05-10T02:19:07;19;19;
43479;PMS5003;29067;35.492;-97.520;2023-05-10T02:21:37;20;20;
43479;PMS5003;29067;35.492;-97.520;2023-05-10T02:24:06;19;19;
43479;PMS5003;29067;35.492;-97.520;2023-05-10T02:26:36;24;22;
43479;PMS5003;29067;35.492;-97.520;2023-05-10T02:29:05;25;24;
43479;PMS5003;29067;35.492;-97.520;2023-05-10T02:31:36;23;21;
43479;PMS5003;29067;35.492;-97.520;2023-05-10T02:34:04;21;20;
43479;PMS5003;29067;35.492;-97.520;2023-05-10T02:36:34;23;21;
43479;PMS5003;29067;35.492;-97.520;2023-05-10T02:39:03;19;19;
43479;PMS5003;29067;35.492;-97.520;2023-05-10T02:41:32;19;18;
43479;PMS5003;29067;35.492;-97.520;2023-05-10T02:44:00;18;17;
43479;PMS5003;29067;35.492;-97.520;2023-05-10T02:46:36;21;20;
43479;PMS5003;29067;35.492;-97.520;2023-05-10T02:49:04;18;18;
43479;PMS5003;29067;35.492;-97.520;2023-05-10T02:51:32;17;17;
43479;PMS5003;29067;35.492;-97.520;2023-05-10T02:54:06;18;17;
43479;PMS5003;29067;35.492;-97.520;2023-05-10T02:56:40;18;17;
43479;PMS5003;29067;35.492;-97.520;2023-05-10T02:59:14;19;19;
43479;PMS5003;29067;35.492;-97.520;2023-05-10T03:01:42;21;19;
43479;PMS5003;29067;35.492;-97.520;2023-05-10T03:04:10;20;19;
43479;PMS5003;29067;35.492;-97.520;2023-05-10T03:06:39;21;19;
43479;PMS5003;29067;35.492;-97.520;2023-05-10T03:09:07;18;17;
43479;PMS5003;29067;35.492;-97.520;2023-05-10T03:11:39;19;17;
43479;PMS5003;29067;35.492;-97.520;2023-05-10T03:14:21;24;21;
43479;PMS5003;29067;35.492;-97.520;2023-05-10T03:16:58;17;16;
43479;PMS5003;29067;35.492;-97.520;2023-05-10T03:19:32;19;17;
43479;PMS5003;29067;35.492;-97.520;2023-05-10T03:22:08;23;19;
43479;PMS5003;29067;35.492;-97.520;2023-05-10T03:24:40;19;19;
43479;PMS5003;29067;35.492;-97.520;2023-05-10T03:27:08;22;19;
43479;PMS5003;29067;35.492;-97.520;2023-05-10T03:29:38;20;19;
43479;PMS5003;29067;35.492;-97.520;2023-05-10T03:32:06;20;20;
43479;PMS5003;29067;35.492;-97.520;2023-05-10T03:34:35;23;22;
43479;PMS5003;29067;35.492;-97.520;2023-05-10T03:37:09;23;19;
43479;PMS5003;29067;35.492;-97.520;2023-05-10T03:39:37;19;18;
43479;PMS5003;29067;35.492;-97.520;2023-05-10T03:42:06;18;18;
43479;PMS5003;29067;35.492;-97.520;2023-05-10T03:44:34;25;19;
43479;PMS5003;29067;35.492;-97.520;2023-05-10T03:47:01;17;17;
43479;PMS5003;29067;35.492;-97.520;2023-05-10T03:49:30;18;18;
43479;PMS5003;29067;35.492;-97.520;2023-05-10T03:51:57;17;17;
43479;PMS5003;29067;35.492;-97.520;2023-05-10T03:54:25;19;19;
43479;PMS5003;29067;35.492;-97.520;2023-05-10T03:56:54;19;19;
43479;PMS5003;29067;35.492;-97.520;2023-05-10T03:59:22;16;16;
43479;PMS5003;29067;35.492;-97.520;2023-05-10T04:01:50;20;19;
43479;PMS5003;29067;35.492;-97.520;2023-05-10T04:04:18;21;19;
43479;PMS5003;29067;35.492;-97.520;2023-05-10T04:06:47;17;17;
43479;PMS5003;29067;35.492;-97.520;2023-05-10T04:09:14;21;20;
43479;PMS5003;29067;35.492;-97.520;2023-05-10T04:11:42;18;17;
43479;PMS5003;29067;35.492;-97.520;2023-05-10T04:14:10;25;20;
43479;PMS5003;29067;35.492;-97.520;2023-05-10T04:16:39;17;16;
43479;PMS5003;29067;35.492;-97.520;2023-05-10T04:19:06;19;19;
43479;PMS5003;29067;35.492;-97.520;2023-05-10T04:21:34;20;19;
43479;PMS5003;29067;35.492;-97.520;2023-05-10T04:24:03;26;20;
43479;PMS5003;29067;35.492;-97.520;2023-05-10T04:26:31;18;18;
43479;PMS5003;29067;35.492;-97.520;2023-05-10T04:28:58;19;19;
43479;PMS5003;29067;35.492;-97.520;2023-05-10T04:31:26;20;18;
43479;PMS5003;29067;35.492;-97.520;2023-05-10T04:33:54;20;19;
43479;PMS5003;29067;35.492;-97.520;2023-05-10T04:36:23;21;20;
43479;PMS5003;29067;35.492;-97.520;2023-05-10T04:38:51;19;19;
43479;PMS5003;29067;35.492;-97.520;2023-05-10T04:41:20;24;23;
43479;PMS5003;29067;35.492;-97.520;2023-05-10T04:43:48;20;19;
43479;PMS5003;29067;35.492;-97.520;2023-05-10T04:46:15;20;20;
43479;PMS5003;29067;35.492;-97.520;2023-05-10T04:48:44;26;23;
43479;PMS5003;29067;35.492;-97.520;2023-05-10T04:51:11;21;21;
43479;PMS5003;29067;35.492;-97.520;2023-05-10T04:53:40;21;21;
43479;PMS5003;29067;35.492;-97.520;2023-05-10T04:56:08;22;22;
43479;PMS5003;29067;35.492;-97.520;2023-05-10T04:58:36;20;19;
43479;PMS5003;29067;35.492;-97.520;2023-05-10T05:01:06;21;20;
43479;PMS5003;29067;35.492;-97.520;2023-05-10T05:03:34;22;22;
43479;PMS5003;29067;35.492;-97.520;2023-05-10T05:06:03;23;21;
43479;PMS5003;29067;35.492;-97.520;2023-05-10T05:08:32;23;21;
43479;PMS5003;29067;35.492;-97.520;2023-05-10T05:11:00;25;23;
43479;PMS5003;29067;35.492;-97.520;2023-05-10T05:13:28;26;25;
43479;PMS5003;29067;35.492;-97.520;2023-05-10T05:15:55;26;25;
43479;PMS5003;29067;35.492;-97.520;2023-05-10T05:18:24;23;23;
43479;PMS5003;29067;35.492;-97.520;2023-05-10T05:20:52;23;22;
43479;PMS5003;29067;35.492;-97.520;2023-05-10T05:23:19;19;19;
43479;PMS5003;29067;35.492;-97.520;2023-05-10T05:25:48;25;24;
43479;PMS5003;29067;35.492;-97.520;2023-05-10T05:28:16;26;23;
43479;PMS5003;29067;35.492;-97.520;2023-05-10T05:30:43;24;23;
43479;PMS5003;29067;35.492;-97.520;2023-05-10T05:33:11;28;23;
43479;PMS5003;29067;35.492;-97.520;2023-05-10T05:35:41;25;22;
43479;PMS5003;29067;35.492;-97.520;2023-05-10T05:38:10;29;24;
43479;PMS5003;29067;35.492;-97.520;2023-05-10T05:40:37;25;23;
43479;PMS5003;29067;35.492;-97.520;2023-05-10T05:43:05;28;23;
43479;PMS5003;29067;35.492;-97.520;2023-05-10T05:45:33;24;23;
43479;PMS5003;29067;35.492;-97.520;2023-05-10T05:48:02;28;24;
43479;PMS5003;29067;35.492;-97.520;2023-05-10T05:50:30;23;23;
43479;PMS5003;29067;35.492;-97.520;2023-05-10T05:52:59;25;25;
43479;PMS5003;29067;35.492;-97.520;2023-05-10T05:55:27;25;25;
43479;PMS5003;29067;35.492;-97.520;2023-05-10T05:57:55;23;23;
43479;PMS5003;29067;35.492;-97.520;2023-05-10T06:00:23;23;23;
43479;PMS5003;29067;35.492;-97.520;2023-05-10T06:02:52;24;23;
43479;PMS5003;29067;35.492;-97.520;2023-05-10T06:05:20;24;24;
43479;PMS5003;29067;35.492;-97.520;2023-05-10T06:07:49;26;25;
43479;PMS5003;29067;35.492;-97.520;2023-05-10T06:10:18;23;23;
43479;PMS5003;29067;35.492;-97.520;2023-05-10T06:12:46;24;24;
43479;PMS5003;29067;35.492;-97.520;2023-05-10T06:15:14;24;23;
43479;PMS5003;29067;35.492;-97.520;2023-05-10T06:17:42;24;23;
43479;PMS5003;29067;35.492;-97.520;2023-05-10T06:20:11;28;26;
43479;PMS5003;29067;35.492;-97.520;2023-05-10T06:22:40;25;24;
43479;PMS5003;29067;35.492;-97.520;2023-05-10T06:25:08;25;24;
43479;PMS5003;29067;35.492;-97.520;2023-05-10T06:27:37;29;27;
43479;PMS5003;29067;35.492;-97.520;2023-05-10T06:30:06;22;22;
43479;PMS5003;29067;35.492;-97.520;2023-05-10T06:32:34;26;24;
43479;PMS5003;29067;35.492;-97.520;2023-05-10T06:35:02;21;21;
43479;PMS5003;29067;35.492;-97.520;2023-05-10T06:37:31;22;21;
43479;PMS5003;29067;35.492;-97.520;2023-05-10T06:39:59;28;24;
43479;PMS5003;29067;35.492;-97.520;2023-05-10T06:42:27;24;24;
43479;PMS5003;29067;35.492;-97.520;2023-05-10T06:44:55;25;24;
43479;PMS5003;29067;35.492;-97.520;2023-05-10T06:47:23;22;20;
43479;PMS5003;29067;35.492;-97.520;2023-05-10T06:49:50;22;22;
43479;PMS5003;29067;35.492;-97.520;2023-05-10T06:52:18;22;22;
43479;PMS5003;29067;35.492;-97.520;2023-05-10T06:54:46;24;22;
43479;PMS5003;29067;35.492;-97.520;2023-05-10T06:57:14;21;20;
43479;PMS5003;29067;35.492;-97.520;2023-05-10T06:59:42;24;23;
43479;PMS5003;29067;35.492;-97.520;2023-05-10T07:02:11;25;23;
43479;PMS5003;29067;35.492;-97.520;2023-05-10T07:04:39;19;19;
43479;PMS5003;29067;35.492;-97.520;2023-05-10T07:07:06;20;20;
43479;PMS5003;29067;35.492;-97.520;2023-05-10T07:09:34;20;20;
43479;PMS5003;29067;35.492;-97.520;2023-05-10T07:12:04;22;21;
43479;PMS5003;29067;35.492;-97.520;2023-05-10T07:14:32;24;22;
43479;PMS5003;29067;35.492;-97.520;2023-05-10T07:17:00;18;18;
43479;PMS5003;29067;35.492;-97.520;2023-05-10T07:19:28;22;22;
43479;PMS5003;29067;35.492;-97.520;2023-05-10T07:21:57;25;24;
43479;PMS5003;29067;35.492;-97.520;2023-05-10T07:24:24;20;19;
43479;PMS5003;29067;35.492;-97.520;2023-05-10T07:26:53;23;23;
43479;PMS5003;29067;35.492;-97.520;2023-05-10T07:29:21;24;23;
43479;PMS5003;29067;35.492;-97.520;2023-05-10T07:31:49;24;21;
43479;PMS5003;29067;35.492;-97.520;2023-05-10T07:34:17;28;24;
43479;PMS5003;29067;35.492;-97.520;2023-05-10T07:36:45;21;20;
43479;PMS5003;29067;35.492;-97.520;2023-05-10T07:39:13;25;22;
43479;PMS5003;29067;35.492;-97.520;2023-05-10T07:41:41;19;19;
43479;PMS5003;29067;35.492;-97.520;2023-05-10T07:44:10;21;21;
43479;PMS5003;29067;35.492;-97.520;2023-05-10T07:46:38;22;20;
43479;PMS5003;29067;35.492;-97.520;2023-05-10T07:49:06;21;20;
43479;PMS5003;29067;35.492;-97.520;2023-05-10T07:51:34;23;21;
43479;PMS5003;29067;35.492;-97.520;2023-05-10T07:54:02;25;24;
43479;PMS5003;29067;35.492;-97.520;2023-05-10T07:56:31;23;20;
43479;PMS5003;29067;35.492;-97.520;2023-05-10T07:59:00;19;19;
43479;PMS5003;29067;35.492;-97.520;2023-05-10T08:01:30;24;22;
43479;PMS5003;29067;35.492;-97.520;2023-05-10T08:03:58;23;21;
43479;PMS5003;29067;35.492;-97.520;2023-05-10T08:06:27;18;17;
43479;PMS5003;29067;35.492;-97.520;2023-05-10T08:08:55;23;23;
43479;PMS5003;29067;35.492;-97.520;2023-05-10T08:11:24;24;20;
43479;PMS5003;29067;35.492;-97.520;2023-05-10T08:13:53;20;19;
43479;PMS5003;29067;35.492;-97.520;2023-05-10T08:16:21;17;17;
43479;PMS5003;29067;35.492;-97.520;2023-05-10T08:18:49;18;17;
43479;PMS5003;29067;35.492;-97.520;2023-05-10T08:21:18;19;18;
43479;PMS5003;29067;35.492;-97.520;2023-05-10T08:23:45;19;19;
43479;PMS5003;29067;35.492;-97.520;2023-05-10T08:26:14;16;16;
43479;PMS5003;29067;35.492;-97.520;2023-05-10T08:28:42;16;16;
43479;PMS5003;29067;35.492;-97.520;2023-05-10T08:31:10;20;16;
43479;PMS5003;29067;35.492;-97.520;2023-05-10T08:33:38;16;15;
43479;PMS5003;29067;35.492;-97.520;2023-05-10T08:36:06;15;15;
43479;PMS5003;29067;35.492;-97.520;2023-05-10T08:38:34;12;12;
43479;PMS5003;29067;35.492;-97.520;2023-05-10T08:41:02;14;13;
43479;PMS5003;29067;35.492;-97.520;2023-05-10T08:43:30;12;12;
43479;PMS5003;29067;35.492;-97.520;2023-05-10T08:45:59;11;11;
43479;PMS5003;29067;35.492;-97.520;2023-05-10T08:48:29;14;14;
43479;PMS5003;29067;35.492;-97.520;2023-05-10T08:51:00;11;10;
43479;PMS5003;29067;35.492;-97.520;2023-05-10T08:53:30;12;12;
43479;PMS5003;29067;35.492;-97.520;2023-05-10T08:56:03;12;12;
43479;PMS5003;29067;35.492;-97.520;2023-05-10T08:58:31;14;12;
43479;PMS5003;29067;35.492;-97.520;2023-05-10T09:01:00;13;11;
43479;PMS5003;29067;35.492;-97.520;2023-05-10T09:03:28;12;10;
43479;PMS5003;29067;35.492;-97.520;2023-05-10T09:05:57;9;8;
43479;PMS5003;29067;35.492;-97.520;2023-05-10T09:08:26;11;11;
43479;PMS5003;29067;35.492;-97.520;2023-05-10T09:10:54;10;10;
43479;PMS5003;29067;35.492;-97.520;2023-05-10T09:13:23;11;10;
43479;PMS5003;29067;35.492;-97.520;2023-05-10T09:15:52;8;8;
43479;PMS5003;29067;35.492;-97.520;2023-05-10T09:18:20;12;12;
43479;PMS5003;29067;35.492;-97.520;2023-05-10T09:20:48;7;7;
43479;PMS5003;29067;35.492;-97.520;2023-05-10T09:23:16;9;9;
43479;PMS5003;29067;35.492;-97.520;2023-05-10T09:25:46;10;9;
43479;PMS5003;29067;35.492;-97.520;2023-05-10T09:28:14;10;10;
43479;PMS5003;29067;35.492;-97.520;2023-05-10T09:30:42;12;10;
43479;PMS5003;29067;35.492;-97.520;2023-05-10T09:33:10;10;9;
43479;PMS5003;29067;35.492;-97.520;2023-05-10T09:35:37;12;11;
43479;PMS5003;29067;35.492;-97.520;2023-05-10T09:38:05;10;10;
43479;PMS5003;29067;35.492;-97.520;2023-05-10T09:40:34;8;8;
43479;PMS5003;29067;35.492;-97.520;2023-05-10T09:43:02;9;9;
43479;PMS5003;29067;35.492;-97.520;2023-05-10T09:45:34;13;9;
43479;PMS5003;29067;35.492;-97.520;2023-05-10T09:48:02;9;9;
43479;PMS5003;29067;35.492;-97.520;2023-05-10T09:50:31;9;9;
43479;PMS5003;29067;35.492;-97.520;2023-05-10T09:52:59;9;9;
43479;PMS5003;29067;35.492;-97.520;2023-05-10T09:55:38;11;10;
43479;PMS5003;29067;35.492;-97.520;2023-05-10T09:58:07;10;10;
43479;PMS5003;29067;35.492;-97.520;2023-05-10T10:00:36;12;10;
43479;PMS5003;29067;35.492;-97.520;2023-05-10T10:03:05;9;9;
43479;PMS5003;29067;35.492;-97.520;2023-05-10T10:05:39;10;10;
43479;PMS5003;29067;35.492;-97.520;2023-05-10T10:08:08;9;8;
43479;PMS5003;29067;35.492;-97.520;2023-05-10T10:10:42;8;8;
43479;PMS5003;29067;35.492;-97.520;2023-05-10T10:13:10;9;8;
43479;PMS5003;29067;35.492;-97.520;2023-05-10T10:15:39;10;10;
43479;PMS5003;29067;35.492;-97.520;2023-05-10T10:18:08;10;10;
43479;PMS5003;29067;35.492;-97.520;2023-05-10T10:20:40;9;9;
43479;PMS5003;29067;35.492;-97.520;2023-05-10T10:23:08;9;9;
43479;PMS5003;29067;35.492;-97.520;2023-05-10T10:25:36;10;10;
43479;PMS5003;29067;35.492;-97.520;2023-05-10T10:28:10;11;11;
43479;PMS5003;29067;35.492;-97.520;2023-05-10T10:30:48;8;8;
43479;PMS5003;29067;35.492;-97.520;2023-05-10T10:33:39;9;9;
43479;PMS5003;29067;35.492;-97.520;2023-05-10T10:36:18;9;9;
43479;PMS5003;29067;35.492;-97.520;2023-05-10T10:38:55;11;10;
43479;PMS5003;29067;35.492;-97.520;2023-05-10T10:41:28;10;10;
43479;PMS5003;29067;35.492;-97.520;2023-05-10T10:45:11;10;10;
43479;PMS5003;29067;35.492;-97.520;2023-05-10T10:47:40;9;9;
43479;PMS5003;29067;35.492;-97.520;2023-05-10T10:50:08;10;9;
43479;PMS5003;29067;35.492;-97.520;2023-05-10T10:52:36;11;11;
43479;PMS5003;29067;35.492;-97.520;2023-05-10T10:55:06;8;8;
43479;PMS5003;29067;35.492;-97.520;2023-05-10T10:57:44;9;9;
43479;PMS5003;29067;35.492;-97.520;2023-05-10T11:03:03;10;10;
43479;PMS5003;29067;35.492;-97.520;2023-05-10T11:05:34;15;11;
43479;PMS5003;29067;35.492;-97.520;2023-05-10T11:08:08;11;10;
43479;PMS5003;29067;35.492;-97.520;2023-05-10T11:10:39;10;9;
43479;PMS5003;29067;35.492;-97.520;2023-05-10T11:13:16;11;10;
43479;PMS5003;29067;35.492;-97.520;2023-05-10T11:15:53;12;12;
43479;PMS5003;29067;35.492;-97.520;2023-05-10T11:18:24;10;9;
43479;PMS5003;29067;35.492;-97.520;2023-05-10T11:20:55;10;10;
43479;PMS5003;29067;35.492;-97.520;2023-05-10T11:23:28;9;8;
43479;PMS5003;29067;35.492;-97.520;2023-05-10T11:25:59;9;9;
43479;PMS5003;29067;35.492;-97.520;2023-05-10T11:28:27;14;11;
43479;PMS5003;29067;35.492;-97.520;2023-05-10T11:30:55;8;8;
43479;PMS5003;29067;35.492;-97.520;2023-05-10T11:33:24;10;10;
43479;PMS5003;29067;35.492;-97.520;2023-05-10T11:35:52;9;9;
43479;PMS5003;29067;35.492;-97.520;2023-05-10T11:38:20;12;12;
43479;PMS5003;29067;35.492;-97.520;2023-05-10T11:40:49;17;12;
43479;PMS5003;29067;35.492;-97.520;2023-05-10T11:43:19;10;9;
43479;PMS5003;29067;35.492;-97.520;2023-05-10T11:45:54;11;10;
43479;PMS5003;29067;35.492;-97.520;2023-05-10T11:48:21;11;11;
43479;PMS5003;29067;35.492;-97.520;2023-05-10T11:50:49;11;10;
43479;PMS5003;29067;35.492;-97.520;2023-05-10T11:53:19;12;11;
43479;PMS5003;29067;35.492;-97.520;2023-05-10T11:55:47;10;10;
43479;PMS5003;29067;35.492;-97.520;2023-05-10T11:58:15;9;9;
43479;PMS5003;29067;35.492;-97.520;2023-05-10T12:00:46;9;9;
43479;PMS5003;29067;35.492;-97.520;2023-05-10T12:03:14;11;9;
43479;PMS5003;29067;35.492;-97.520;2023-05-10T12:05:42;12;11;
43479;PMS5003;29067;35.492;-97.520;2023-05-10T12:08:11;10;9;
43479;PMS5003;29067;35.492;-97.520;2023-05-10T12:10:40;9;9;
43479;PMS5003;29067;35.492;-97.520;2023-05-10T12:13:12;12;11;
43479;PMS5003;29067;35.492;-97.520;2023-05-10T12:15:40;13;12;
43479;PMS5003;29067;35.492;-97.520;2023-05-10T12:18:09;11;11;
43479;PMS5003;29067;35.492;-97.520;2023-05-10T12:20:37;9;9;
43479;PMS5003;29067;35.492;-97.520;2023-05-10T12:23:08;13;12;
43479;PMS5003;29067;35.492;-97.520;2023-05-10T12:25:37;9;9;
43479;PMS5003;29067;35.492;-97.520;2023-05-10T12:28:05;11;11;
43479;PMS5003;29067;35.492;-97.520;2023-05-10T12:30:35;10;10;
43479;PMS5003;29067;35.492;-97.520;2023-05-10T12:33:08;11;10;
43479;PMS5003;29067;35.492;-97.520;2023-05-10T12:35:45;13;13;
43479;PMS5003;29067;35.492;-97.520;2023-05-10T12:38:31;13;13;
43479;PMS5003;29067;35.492;-97.520;2023-05-10T12:41:01;12;11;
43479;PMS5003;29067;35.492;-97.520;2023-05-10T12:43:31;13;12;
43479;PMS5003;29067;35.492;-97.520;2023-05-10T12:46:04;13;13;
43479;PMS5003;29067;35.492;-97.520;2023-05-10T12:48:33;13;13;
43479;PMS5003;29067;35.492;-97.520;2023-05-10T12:51:01;13;12;
43479;PMS5003;29067;35.492;-97.520;2023-05-10T12:53:31;12;11;
43479;PMS5003;29067;35.492;-97.520;2023-05-10T12:55:59;15;14;
43479;PMS5003;29067;35.492;-97.520;2023-05-10T12:58:27;18;13;
43479;PMS5003;29067;35.492;-97.520;2023-05-10T13:00:55;14;14;
43479;PMS5003;29067;35.492;-97.520;2023-05-10T13:03:23;13;13;
43479;PMS5003;29067;35.492;-97.520;2023-05-10T13:05:51;15;13;
43479;PMS5003;29067;35.492;-97.520;2023-05-10T13:08:19;19;15;
43479;PMS5003;29067;35.492;-97.520;2023-05-10T13:10:47;15;14;
43479;PMS5003;29067;35.492;-97.520;2023-05-10T13:13:16;18;16;
43479;PMS5003;29067;35.492;-97.520;2023-05-10T13:15:44;21;17;
43479;PMS5003;29067;35.492;-97.520;2023-05-10T13:18:12;18;15;
43479;PMS5003;29067;35.492;-97.520;2023-05-10T13:20:41;17;15;
43479;PMS5003;29067;35.492;-97.520;2023-05-10T13:23:09;19;16;
43479;PMS5003;29067;35.492;-97.520;2023-05-10T13:25:37;17;15;
43479;PMS5003;29067;35.492;-97.520;2023-05-10T13:28:06;20;18;
43479;PMS5003;29067;35.492;-97.520;2023-05-10T13:30:34;19;17;
43479;PMS5003;29067;35.492;-97.520;2023-05-10T13:33:01;13;11;
43479;PMS5003;29067;35.492;-97.520;2023-05-10T13:35:30;18;14;
43479;PMS5003;29067;35.492;-97.520;2023-05-10T13:37:58;17;16;
43479;PMS5003;29067;35.492;-97.520;2023-05-10T13:40:25;14;13;
43479;PMS5003;29067;35.492;-97.520;2023-05-10T13:42:54;14;14;
43479;PMS5003;29067;35.492;-97.520;2023-05-10T13:45:22;15;14;
43479;PMS5003;29067;35.492;-97.520;2023-05-10T13:47:49;19;16;
43479;PMS5003;29067;35.492;-97.520;2023-05-10T13:50:17;20;16;
43479;PMS5003;29067;35.492;-97.520;2023-05-10T13:52:45;22;18;
43479;PMS5003;29067;35.492;-97.520;2023-05-10T13:55:14;22;20;
43479;PMS5003;29067;35.492;-97.520;2023-05-10T13:57:42;28;23;
43479;PMS5003;29067;35.492;-97.520;2023-05-10T14:00:11;20;19;
43479;PMS5003;29067;35.492;-97.520;2023-05-10T14:02:40;21;16;
43479;PMS5003;29067;35.492;-97.520;2023-05-10T14:05:08;20;19;
43479;PMS5003;29067;35.492;-97.520;2023-05-10T14:07:36;19;17;
43479;PMS5003;29067;35.492;-97.520;2023-05-10T14:10:05;16;16;
43479;PMS5003;29067;35.492;-97.520;2023-05-10T14:12:33;18;18;
43479;PMS5003;29067;35.492;-97.520;2023-05-10T14:15:01;15;15;
43479;PMS5003;29067;35.492;-97.520;2023-05-10T14:17:29;15;13;
43479;PMS5003;29067;35.492;-97.520;2023-05-10T14:19:58;20;14;
43479;PMS5003;29067;35.492;-97.520;2023-05-10T14:22:26;16;15;
43479;PMS5003;29067;35.492;-97.520;2023-05-10T14:24:55;17;16;
43479;PMS5003;29067;35.492;-97.520;2023-05-10T14:27:23;15;14;
43479;PMS5003;29067;35.492;-97.520;2023-05-10T14:29:51;12;12;
43479;PMS5003;29067;35.492;-97.520;2023-05-10T14:32:20;12;11;
43479;PMS5003;29067;35.492;-97.520;2023-05-10T14:34:48;12;12;
43479;PMS5003;29067;35.492;-97.520;2023-05-10T14:37:16;17;16;
43479;PMS5003;29067;35.492;-97.520;2023-05-10T14:39:45;14;14;
43479;PMS5003;29067;35.492;-97.520;2023-05-10T14:42:13;15;13;
43479;PMS5003;29067;35.492;-97.520;2023-05-10T14:44:42;22;22;
43479;PMS5003;29067;35.492;-97.520;2023-05-10T14:47:09;24;23;
43479;PMS5003;29067;35.492;-97.520;2023-05-10T14:49:37;23;21;
43479;PMS5003;29067;35.492;-97.520;2023-05-10T14:52:06;20;20;
43479;PMS5003;29067;35.492;-97.520;2023-05-10T14:54:34;17;17;
43479;PMS5003;29067;35.492;-97.520;2023-05-10T14:57:02;23;22;
43479;PMS5003;29067;35.492;-97.520;2023-05-10T14:59:30;20;19;
43479;PMS5003;29067;35.492;-97.520;2023-05-10T15:01:59;12;12;
43479;PMS5003;29067;35.492;-97.520;2023-05-10T15:04:27;11;11;
43479;PMS5003;29067;35.492;-97.520;2023-05-10T15:06:54;10;10;
43479;PMS5003;29067;35.492;-97.520;2023-05-10T15:09:23;14;13;
43479;PMS5003;29067;35.492;-97.520;2023-05-10T15:11:51;15;13;
43479;PMS5003;29067;35.492;-97.520;2023-05-10T15:14:19;13;12;
43479;PMS5003;29067;35.492;-97.520;2023-05-10T15:16:47;17;14;
43479;PMS5003;29067;35.492;-97.520;2023-05-10T15:19:15;12;12;
43479;PMS5003;29067;35.492;-97.520;2023-05-10T15:21:43;14;13;
43479;PMS5003;29067;35.492;-97.520;2023-05-10T15:24:13;15;15;
43479;PMS5003;29067;35.492;-97.520;2023-05-10T15:26:41;22;21;
43479;PMS5003;29067;35.492;-97.520;2023-05-10T15:29:08;17;16;
43479;PMS5003;29067;35.492;-97.520;2023-05-10T15:31:37;17;17;
43479;PMS5003;29067;35.492;-97.520;2023-05-10T15:34:05;16;15;
43479;PMS5003;29067;35.492;-97.520;2023-05-10T15:36:33;14;14;
43479;PMS5003;29067;35.492;-97.520;2023-05-10T15:39:02;16;14;
43479;PMS5003;29067;35.492;-97.520;2023-05-10T15:41:30;12;12;
43479;PMS5003;29067;35.492;-97.520;2023-05-10T15:43:58;14;14;
43479;PMS5003;29067;35.492;-97.520;2023-05-10T15:46:27;14;13;
43479;PMS5003;29067;35.492;-97.520;2023-05-10T15:48:56;15;14;
43479;PMS5003;29067;35.492;-97.520;2023-05-10T15:51:24;13;13;
43479;PMS5003;29067;35.492;-97.520;2023-05-10T15:53:52;14;14;
43479;PMS5003;29067;35.492;-97.520;2023-05-10T15:56:21;12;12;
43479;PMS5003;29067;35.492;-97.520;2023-05-10T15:58:49;12;12;
43479;PMS5003;29067;35.492;-97.520;2023-05-10T16:01:17;15;15;
43479;PMS5003;29067;35.492;-97.520;2023-05-10T16:03:46;14;13;
43479;PMS5003;29067;35.492;-97.520;2023-05-10T16:06:14;15;14;
43479;PMS5003;29067;35.492;-97.520;2023-05-10T16:08:42;16;14;